Aérodrome :
LOGIN :

S'inscrire | Disclaimer

   EN    FR    IT 

 










Légende :    VFR   VFR Marginal   IFR   IFR Intensif   IFR Très Intensif
Visi : 
Plafond : 
>= 8 km
>= 3000ft
5 à 8 km
1000 à 3000 ft
1500m à 5 km
500 à 1000 ft
800 à 1500m
200 à 500 ft
< 800m
< 200 ft
Symboles :   Orages  Brouillard  Fortes neiges  Fortes précipitations  Vent > 20 kt
SIGMETs :   Divers  Orages  Givrage  Turbulence  Onde Orograph.  Cendres Volcan.






- Altitude de l'aérodrome : 453 ft
- Code IATA : SBK


LFRT - St Brieuc Armor

DERNIER METAR :
  • 031000Z AUTO 25011KT 210V270 9999 BKN028 BKN033 BKN042 17/11 Q1021

METARs EXPIRÉS :
  • 030930Z AUTO 26012KT 9999 BKN027 OVC032 17/11 Q1022
  • 030900Z AUTO 26010KT 9999 BKN027 17/11 Q1021
  • 030830Z AUTO 25011KT 200V280 9999 FEW025 17/11 Q1021
  • 030800Z AUTO 27010KT 9999 SCT021 16/11 Q1021
  • 030730Z AUTO 26008KT 220V290 9999 FEW016 15/11 Q1021

Prévision TAF périmée.



MET'MAP, la Météo Aéronautique d'un coup d'oeil ! - Copyright ORBIFLY Décembre 2007 - Disclaimer

ORBIFLY MET'MAP TEAM :

Programmation & Développement : Alexandra Zaïnal
Sur une idée originale de : Baudouin d'Aumeries
Assistance à la programmation : Marc-Olivier Méhu
Soutien technique & logistique : Manuel Goepfert

Contact : metmap@orbifly.com




SOURCES & CREDITS :

   NOAA